Time;durP1;ratioP1;P1;durP2;ratioP2;P2;SDS_P1;SDS_P2;PMS_P1;PMS_P2;Temp;Humidity;BMP_temperature;BMP_pressure;BME280_temperature;BME280_humidity;BME280_pressure;Samples;Min_cycle;Max_cycle;Signal;HPM_P1;HPM_P2
2021/01/08 00:00:17;;;;;;;1.65;1.10;;;4.70;99.90;;;4.33;100.00;101237.81;4983824;28;20065;-81
2021/01/08 00:02:43;;;;;;;1.73;1.27;;;4.70;99.90;;;4.44;100.00;101239.47;5012818;28;20034;-70
2021/01/08 00:05:10;;;;;;;1.35;0.70;;;4.70;99.90;;;4.46;100.00;101242.84;4979840;28;20046;-72
2021/01/08 00:07:37;;;;;;;1.58;0.95;;;4.70;99.90;;;4.40;100.00;101239.94;5013687;28;20037;-71
2021/01/08 00:10:05;;;;;;;3.88;1.23;;;4.80;99.90;;;4.36;100.00;101242.91;4980915;28;20038;-76
2021/01/08 00:12:33;;;;;;;2.58;0.82;;;4.70;99.90;;;4.24;100.00;101238.72;4980156;28;20076;-79
2021/01/08 00:14:59;;;;;;;1.73;0.70;;;4.70;99.90;;;4.33;100.00;101236.97;5011002;28;20029;-81
2021/01/08 00:17:26;;;;;;;0.90;0.50;;;4.70;99.90;;;4.30;100.00;101242.66;5000468;28;20121;-87
2021/01/08 00:19:52;;;;;;;1.33;0.60;;;4.60;99.90;;;4.19;100.00;101237.47;5000332;28;20128;-86
2021/01/08 00:22:19;;;;;;;1.13;0.40;;;4.60;99.90;;;4.06;100.00;101242.38;5003077;28;20562;-82
2021/01/08 00:24:48;;;;;;;0.98;0.60;;;4.50;99.90;;;4.06;100.00;101234.28;5000377;28;20555;-85
2021/01/08 00:27:14;;;;;;;1.75;0.85;;;4.50;99.90;;;4.11;100.00;101231.97;4985157;28;20049;-85
2021/01/08 00:29:41;;;;;;;1.02;0.52;;;4.40;99.90;;;4.11;100.00;101230.13;4997624;28;20153;-82
2021/01/08 00:32:10;;;;;;;1.42;0.70;;;4.40;99.90;;;4.14;100.00;101231.69;5013800;28;20040;-70
2021/01/08 00:34:36;;;;;;;2.25;1.10;;;4.50;99.90;;;4.10;100.00;101231.13;4970031;28;20031;-84
2021/01/08 00:37:02;;;;;;;1.08;0.70;;;4.50;99.90;;;4.22;100.00;101234.47;4997027;28;20034;-84
2021/01/08 00:39:28;;;;;;;0.75;0.30;;;4.50;99.90;;;4.15;100.00;101230.69;5014831;28;20033;-84
2021/01/08 00:41:53;;;;;;;1.17;0.75;;;4.50;99.90;;;4.14;100.00;101234.38;5012048;28;20188;-85
2021/01/08 00:44:19;;;;;;;0.80;0.50;;;4.50;99.90;;;4.10;100.00;101236.53;4979283;28;20453;-84
2021/01/08 00:46:48;;;;;;;1.35;0.70;;;4.50;99.90;;;4.15;100.00;101238.78;4997606;28;20190;-86
2021/01/08 00:49:15;;;;;;;2.47;0.55;;;4.50;99.90;;;4.09;100.00;101232.13;4996799;28;20038;-84
2021/01/08 00:51:42;;;;;;;1.63;0.32;;;4.90;99.90;;;4.14;100.00;101237.06;4981199;28;20493;-84
2021/01/08 00:54:08;;;;;;;0.98;0.40;;;4.80;99.90;;;4.00;100.00;101233.88;4989100;28;20040;-85
2021/01/08 00:56:35;;;;;;;0.98;0.50;;;4.40;99.90;;;4.01;100.00;101235.56;4994336;28;20247;-85
2021/01/08 00:59:00;;;;;;;0.68;0.60;;;4.40;99.90;;;4.01;100.00;101240.97;4996017;28;20069;-84
2021/01/08 01:01:29;;;;;;;1.45;0.63;;;4.40;99.90;;;4.01;100.00;101230.19;4978575;28;20128;-85
2021/01/08 01:03:55;;;;;;;1.30;0.65;;;4.40;99.90;;;3.99;100.00;101234.88;4995812;28;20033;-82
2021/01/08 01:06:30;;;;;;;0.68;0.50;;;4.40;99.90;;;4.07;100.00;101235.97;5011738;28;20073;-84
2021/01/08 01:08:57;;;;;;;0.77;0.57;;;4.40;99.90;;;4.07;100.00;101241.34;4996194;28;20463;-83
2021/01/08 01:11:25;;;;;;;2.55;0.77;;;4.40;99.90;;;4.17;100.00;101242.19;4995986;28;20084;-79
2021/01/08 01:13:56;;;;;;;3.67;0.70;;;4.40;99.90;;;4.17;100.00;101244.88;4978343;28;20042;-82
2021/01/08 01:16:24;;;;;;;2.88;0.85;;;4.50;99.90;;;4.20;100.00;101240.00;4996043;28;20496;-79
2021/01/08 01:18:53;;;;;;;1.15;0.60;;;4.50;99.90;;;4.30;100.00;101239.97;4993476;28;20546;-79
2021/01/08 01:21:20;;;;;;;2.13;0.85;;;4.60;99.90;;;4.40;100.00;101242.63;4977062;28;20061;-77
2021/01/08 01:23:46;;;;;;;0.60;0.45;;;4.60;99.90;;;4.33;100.00;101236.97;4994264;28;20033;-75
2021/01/08 01:26:12;;;;;;;1.63;0.75;;;4.70;99.90;;;4.24;100.00;101245.97;4993359;28;20038;-82
2021/01/08 01:28:39;;;;;;;2.13;0.40;;;4.70;99.90;;;4.30;100.00;101246.19;4995631;28;20438;-83
2021/01/08 01:31:05;;;;;;;2.05;0.47;;;4.60;99.90;;;4.37;100.00;101249.16;4991369;28;20030;-85
2021/01/08 01:33:31;;;;;;;0.43;0.35;;;4.60;99.90;;;4.29;100.00;101246.34;4994971;28;20072;-86
2021/01/08 01:35:58;;;;;;;1.65;0.40;;;4.60;99.90;;;4.34;100.00;101249.44;5013225;28;20037;-84
2021/01/08 01:38:24;;;;;;;1.20;0.32;;;4.80;99.90;;;4.22;100.00;101247.94;4992036;28;20034;-85
2021/01/08 01:40:51;;;;;;;2.80;1.52;;;4.50;99.90;;;4.15;100.00;101249.56;4994835;28;20045;-85
2021/01/08 01:43:17;;;;;;;0.30;0.30;;;4.40;99.90;;;4.07;100.00;101252.13;5005066;28;20046;-85
2021/01/08 01:45:43;;;;;;;0.25;0.25;;;4.40;99.90;;;4.07;100.00;101247.59;4993129;28;20408;-85
2021/01/08 01:48:14;;;;;;;0.32;0.30;;;4.40;99.90;;;4.11;100.00;101249.00;4990335;28;20039;-84
2021/01/08 01:50:41;;;;;;;1.15;0.50;;;4.30;99.90;;;4.15;100.00;101254.94;4975984;28;20478;-84
2021/01/08 01:53:07;;;;;;;1.48;0.40;;;4.40;99.90;;;4.08;100.00;101254.66;4976772;28;20044;-85
2021/01/08 01:55:33;;;;;;;1.75;0.50;;;4.40;99.90;;;4.00;100.00;101252.72;4976127;28;20121;-85
2021/01/08 01:58:02;;;;;;;0.32;0.30;;;4.40;99.90;;;4.10;100.00;101262.59;4976311;28;20090;-85
2021/01/08 02:00:27;;;;;;;0.85;0.30;;;4.50;99.90;;;4.23;100.00;101257.72;4990869;28;20030;-85
2021/01/08 02:03:03;;;;;;;0.30;0.30;;;4.50;99.90;;;4.23;100.00;101263.13;4976782;28;20508;-83
2021/01/08 02:05:30;;;;;;;0.30;0.30;;;4.50;99.90;;;4.23;100.00;101263.97;4977436;28;20039;-85
2021/01/08 02:08:15;;;;;;;1.27;0.30;;;4.60;99.90;;;4.23;100.00;101265.81;4993086;28;20030;-85
2021/01/08 02:10:50;;;;;;;;;;;4.60;99.90;;;4.10;100.00;101273.38;4992635;28;20489;-84
2021/01/08 02:13:28;;;;;;;0.30;0.30;;;4.70;99.90;;;4.18;100.00;101266.25;4969999;28;19969;-84
2021/01/08 02:15:57;;;;;;;1.20;0.60;;;4.60;99.90;;;4.27;100.00;101270.78;4992078;28;20120;-87
2021/01/08 02:18:26;;;;;;;0.75;0.50;;;4.80;99.90;;;4.30;100.00;101277.69;4977056;28;20034;-85
2021/01/08 02:20:55;;;;;;;0.90;0.52;;;4.70;99.90;;;4.32;100.00;101273.00;4975676;28;20038;-83
2021/01/08 02:23:32;;;;;;;3.78;0.77;;;4.70;99.90;;;4.34;100.00;101271.00;4990689;28;20046;-84
2021/01/08 02:25:59;;;;;;;0.95;0.55;;;4.70;99.90;;;4.35;100.00;101270.88;4977093;28;20176;-85
2021/01/08 02:28:25;;;;;;;0.52;0.45;;;4.70;99.90;;;4.48;100.00;101275.91;4973285;28;20035;-85
2021/01/08 02:30:53;;;;;;;0.63;0.55;;;4.80;99.90;;;4.47;100.00;101271.50;4974560;28;20033;-79
2021/01/08 02:33:20;;;;;;;1.42;0.50;;;4.80;99.90;;;4.58;100.00;101276.69;4976048;28;20050;-86
2021/01/08 02:35:50;;;;;;;1.17;0.60;;;4.90;99.90;;;4.59;100.00;101275.69;5007554;28;20497;-75
2021/01/08 02:38:20;;;;;;;1.70;0.93;;;4.90;99.90;;;4.60;100.00;101281.94;4989381;28;20101;-74
2021/01/08 02:40:49;;;;;;;3.90;0.75;;;4.90;99.90;;;4.55;100.00;101268.91;4975064;28;20034;-72
2021/01/08 02:43:20;;;;;;;2.35;1.17;;;4.90;99.90;;;4.41;100.00;101277.47;4973936;28;20046;-73
2021/01/08 02:45:46;;;;;;;1.85;1.10;;;4.90;99.90;;;4.42;100.00;101279.19;4967682;28;20301;-74
2021/01/08 02:48:12;;;;;;;2.13;1.15;;;4.80;99.90;;;4.35;100.00;101283.47;4974461;28;20038;-75
2021/01/08 02:50:38;;;;;;;4.22;1.10;;;4.70;99.90;;;4.37;100.00;101281.50;4973618;28;20042;-71
2021/01/08 02:53:10;;;;;;;2.78;1.50;;;4.70;99.90;;;4.46;100.00;101280.59;4958064;28;20080;-77
2021/01/08 02:55:38;;;;;;;2.95;1.35;;;4.80;99.90;;;4.49;100.00;101280.31;4974638;28;20045;-72
2021/01/08 02:58:04;;;;;;;2.58;1.35;;;4.80;99.90;;;4.50;100.00;101283.84;5007856;28;20037;-79
2021/01/08 03:00:33;;;;;;;1.90;1.00;;;4.80;99.90;;;4.47;100.00;101279.59;4994719;28;20121;-74
2021/01/08 03:03:01;;;;;;;4.43;1.30;;;4.80;99.90;;;4.48;100.00;101278.59;4978841;28;20026;-73
2021/01/08 03:05:29;;;;;;;4.97;2.53;;;4.80;99.90;;;4.52;100.00;101285.38;4991636;28;20428;-73
2021/01/08 03:07:56;;;;;;;2.55;1.42;;;4.80;99.90;;;4.54;100.00;101277.97;4977885;28;20061;-76
2021/01/08 03:10:26;;;;;;;2.90;1.45;;;4.80;99.90;;;4.55;100.00;101276.13;4977130;28;20026;-78
2021/01/08 03:13:02;;;;;;;3.45;1.60;;;4.90;99.90;;;4.60;100.00;101281.94;4955870;28;20034;-76
2021/01/08 03:15:28;;;;;;;3.97;1.50;;;5.00;99.90;;;4.60;100.00;101282.78;4991804;28;20400;-77
2021/01/08 03:17:54;;;;;;;2.50;1.42;;;5.00;99.90;;;4.60;100.00;101284.63;5009967;28;20053;-82
2021/01/08 03:20:20;;;;;;;3.05;2.35;;;5.00;99.90;;;4.55;100.00;101282.38;4975702;28;20039;-81
2021/01/08 03:22:46;;;;;;;3.40;1.25;;;5.00;99.90;;;4.54;100.00;101288.75;4975115;28;20057;-74
2021/01/08 03:25:12;;;;;;;2.67;1.15;;;4.90;99.90;;;4.48;100.00;101286.69;4994566;28;20038;-79
2021/01/08 03:27:38;;;;;;;3.30;0.93;;;4.90;99.90;;;4.56;100.00;101281.38;4976799;28;20039;-76
2021/01/08 03:30:10;;;;;;;2.13;1.30;;;4.90;99.90;;;4.60;100.00;101285.47;4976499;28;20038;-76
2021/01/08 03:32:37;;;;;;;1.13;1.02;;;4.90;99.90;;;4.49;100.00;101287.53;4977199;28;20066;-80
2021/01/08 03:35:07;;;;;;;1.20;1.10;;;4.90;99.90;;;4.47;100.00;101292.22;4994101;28;20537;-81
2021/01/08 03:37:33;;;;;;;1.55;1.02;;;4.80;99.90;;;4.48;100.00;101284.00;4978287;28;20133;-78
2021/01/08 03:39:59;;;;;;;3.55;1.05;;;4.70;99.90;;;4.34;100.00;101287.19;4984355;28;20204;-83
2021/01/08 03:42:25;;;;;;;1.65;0.90;;;4.70;99.90;;;4.25;100.00;101278.16;4958588;28;20055;-72
2021/01/08 03:44:51;;;;;;;3.28;0.88;;;4.70;99.90;;;4.31;100.00;101282.94;4987499;28;20202;-74
2021/01/08 03:47:17;;;;;;;1.70;0.77;;;4.60;99.90;;;4.38;100.00;101277.81;4942539;28;20050;-77
2021/01/08 03:49:42;;;;;;;1.50;0.65;;;4.60;99.90;;;4.26;100.00;101279.84;4974387;28;20371;-75
2021/01/08 03:52:09;;;;;;;2.85;0.70;;;4.60;99.90;;;4.25;100.00;101282.69;4974453;28;20053;-73
2021/01/08 03:54:35;;;;;;;0.85;0.70;;;4.60;99.90;;;4.30;100.00;101283.06;4958017;28;20038;-77
2021/01/08 03:57:02;;;;;;;2.15;0.80;;;4.60;99.90;;;4.27;100.00;101286.09;4981174;28;20039;-74
2021/01/08 03:59:28;;;;;;;1.77;0.80;;;4.60;99.90;;;4.26;100.00;101282.53;4974800;28;20035;-81
2021/01/08 04:01:54;;;;;;;4.95;0.98;;;4.60;99.90;;;4.25;100.00;101282.69;4990399;28;20073;-82
2021/01/08 04:04:21;;;;;;;1.77;0.93;;;4.60;99.90;;;4.20;100.00;101284.97;4973887;28;20049;-84
2021/01/08 04:06:46;;;;;;;2.63;0.70;;;4.60;99.90;;;4.20;100.00;101290.34;4958484;28;20098;-80
2021/01/08 04:09:12;;;;;;;2.38;0.70;;;4.60;99.90;;;4.22;100.00;101282.97;4956622;28;20066;-81
2021/01/08 04:11:38;;;;;;;3.90;0.73;;;4.60;99.90;;;4.22;100.00;101281.13;4973698;28;20101;-73
2021/01/08 04:14:04;;;;;;;3.63;0.90;;;4.60;99.90;;;4.14;100.00;101283.72;4957060;28;20122;-78
2021/01/08 04:16:35;;;;;;;0.82;0.65;;;4.60;99.90;;;4.09;100.00;101283.31;4974016;28;20035;-75
2021/01/08 04:19:01;;;;;;;0.98;0.40;;;4.60;99.90;;;4.05;100.00;101291.84;4957951;28;20046;-74
2021/01/08 04:21:27;;;;;;;0.82;0.77;;;4.50;99.90;;;3.98;100.00;101286.19;4950177;28;20039;-77
2021/01/08 04:23:53;;;;;;;0.40;0.40;;;4.50;99.90;;;3.97;100.00;101285.34;4975204;28;20039;-77
2021/01/08 04:26:19;;;;;;;1.02;0.90;;;4.40;99.90;;;3.98;100.00;101281.66;4968176;28;20065;-75
2021/01/08 04:28:44;;;;;;;3.92;0.80;;;4.40;99.90;;;3.91;100.00;101283.25;4973669;28;20482;-75
2021/01/08 04:31:10;;;;;;;2.40;1.00;;;4.40;99.90;;;3.96;100.00;101288.16;4975202;28;20042;-75
2021/01/08 04:33:36;;;;;;;0.50;0.50;;;4.40;99.90;;;3.93;100.00;101283.09;4973112;28;20038;-79
2021/01/08 04:36:03;;;;;;;0.98;0.70;;;4.40;99.90;;;3.90;100.00;101289.63;4973675;28;20469;-81
2021/01/08 04:38:29;;;;;;;2.03;1.00;;;4.40;99.90;;;3.93;100.00;101289.34;4973538;28;20121;-78
2021/01/08 04:40:56;;;;;;;1.25;0.55;;;4.40;99.90;;;3.92;100.00;101282.25;4959517;28;20342;-79
2021/01/08 04:43:22;;;;;;;1.60;0.57;;;4.40;99.90;;;3.92;100.00;101293.03;4967504;28;20096;-72
2021/01/08 04:45:48;;;;;;;0.77;0.77;;;4.40;99.90;;;3.89;100.00;101293.31;4977463;28;20042;-76
2021/01/08 04:48:17;;;;;;;2.20;0.60;;;4.40;99.90;;;3.93;100.00;101296.56;4993375;28;20038;-78
2021/01/08 04:50:44;;;;;;;1.27;0.55;;;4.30;99.90;;;3.95;100.00;101291.88;5008843;28;20031;-72
2021/01/08 04:53:10;;;;;;;3.92;1.20;;;4.40;99.90;;;3.95;100.00;101294.59;4960078;28;20046;-86
2021/01/08 04:55:37;;;;;;;1.65;0.77;;;4.40;99.90;;;3.87;100.00;101289.91;4977230;28;20536;-84
2021/01/08 04:58:07;;;;;;;1.17;0.63;;;4.40;99.90;;;3.94;100.00;101296.41;4975898;28;20101;-83
2021/01/08 05:00:35;;;;;;;1.27;0.85;;;4.40;99.90;;;3.98;100.00;101297.81;4991677;28;20080;-84
2021/01/08 05:03:01;;;;;;;0.85;0.60;;;4.40;99.90;;;3.97;100.00;101298.78;4990139;28;20038;-85
2021/01/08 05:05:27;;;;;;;1.00;0.88;;;4.40;99.90;;;4.06;100.00;101304.31;4991793;28;20048;-85
2021/01/08 05:07:53;;;;;;;1.88;0.55;;;4.40;99.90;;;4.05;100.00;101308.00;4976091;28;20038;-85
2021/01/08 05:10:20;;;;;;;1.00;0.60;;;4.40;99.90;;;4.09;100.00;101309.41;4970585;28;20067;-84
2021/01/08 05:12:48;;;;;;;0.60;0.60;;;4.40;99.90;;;4.07;100.00;101314.06;4973457;28;20027;-84
2021/01/08 05:15:15;;;;;;;1.23;0.60;;;4.50;99.90;;;4.03;100.00;101312.69;4986952;28;20034;-84
2021/01/08 05:17:42;;;;;;;0.95;0.43;;;4.40;99.90;;;3.99;100.00;101315.66;4977576;28;20066;-76
2021/01/08 05:20:12;;;;;;;1.45;0.60;;;4.40;99.90;;;3.98;100.00;101311.28;4977030;28;20097;-78
2021/01/08 05:22:39;;;;;;;0.80;0.63;;;4.40;99.90;;;3.95;100.00;101314.25;4992998;28;20489;-79
2021/01/08 05:25:08;;;;;;;1.42;0.50;;;4.40;99.90;;;4.01;100.00;101315.53;4981726;28;20034;-73
2021/01/08 05:27:34;;;;;;;1.38;0.70;;;4.40;99.90;;;3.98;100.00;101316.66;5007551;28;20046;-79
2021/01/08 05:30:32;;;;;;;0.90;0.70;;;4.40;99.90;;;3.94;100.00;101312.59;4958819;28;20077;-72
2021/01/08 05:33:05;;;;;;;0.30;0.30;;;4.50;99.90;;;4.08;100.00;101315.78;4948083;28;20058;-74
2021/01/08 05:35:33;;;;;;;0.98;0.70;;;4.50;99.90;;;4.07;100.00;101316.75;4975223;28;20077;-79
2021/01/08 05:38:05;;;;;;;1.05;0.50;;;4.50;99.90;;;4.30;100.00;101320.78;4959688;28;20034;-76
2021/01/08 05:40:33;;;;;;;0.93;0.73;;;4.40;99.90;;;4.19;100.00;101320.97;4992483;28;20058;-74
2021/01/08 05:43:01;;;;;;;1.13;0.70;;;4.40;99.90;;;4.16;100.00;101324.84;4987816;28;20084;-84
2021/01/08 05:45:30;;;;;;;2.25;0.90;;;4.50;99.90;;;4.16;100.00;101324.84;4972317;28;20043;-73
2021/01/08 05:48:02;;;;;;;0.40;0.40;;;4.50;99.90;;;4.24;100.00;101330.34;4960427;28;20066;-79
2021/01/08 05:50:29;;;;;;;0.60;0.60;;;4.50;99.90;;;4.24;100.00;101326.78;4975098;28;20059;-85
2021/01/08 05:53:04;;;;;;;1.70;0.88;;;4.40;99.90;;;4.15;100.00;101325.00;4992361;28;20121;-84
2021/01/08 05:55:41;;;;;;;0.50;0.50;;;4.50;99.90;;;4.08;100.00;101326.53;4973093;28;20038;-70
2021/01/08 05:58:23;;;;;;;0.88;0.60;;;4.30;99.90;;;4.11;100.00;101334.34;4989519;28;20026;-79
2021/01/08 06:00:57;;;;;;;1.40;0.63;;;4.40;99.90;;;4.06;100.00;101332.09;4970964;28;20102;-72
2021/01/08 06:03:25;;;;;;;3.17;0.93;;;4.40;99.90;;;3.98;100.00;101335.50;4953743;28;20385;-76
2021/01/08 06:05:59;;;;;;;0.95;0.75;;;4.40;99.90;;;3.93;100.00;101347.72;4983163;28;20035;-72
2021/01/08 06:08:32;;;;;;;0.60;0.60;;;4.40;99.90;;;3.90;100.00;101351.56;4965632;28;20090;-73
2021/01/08 06:11:00;;;;;;;0.70;0.70;;;4.30;99.90;;;3.89;100.00;101352.53;4967910;28;20061;-88
2021/01/08 06:13:49;;;;;;;0.95;0.68;;;4.30;99.90;;;3.85;100.00;101356.50;4979792;28;20054;-76
2021/01/08 06:16:21;;;;;;;0.75;0.50;;;4.30;99.90;;;3.86;100.00;101349.28;4975903;28;20047;-74
2021/01/08 06:18:56;;;;;;;1.08;0.50;;;4.30;99.90;;;3.87;100.00;101351.84;4987877;28;20100;-88
2021/01/08 06:21:36;;;;;;;0.40;0.40;;;4.20;99.90;;;3.82;100.00;101355.97;4946610;28;20472;-73
2021/01/08 06:24:03;;;;;;;2.95;0.77;;;4.10;99.90;;;3.88;100.00;101358.94;4957561;28;20552;-71
2021/01/08 06:26:31;;;;;;;1.88;0.50;;;4.10;99.90;;;3.87;100.00;101364.44;4990568;28;20075;-73
2021/01/08 06:29:02;;;;;;;0.40;0.38;;;4.10;99.90;;;3.87;100.00;101359.91;4990736;28;20030;-71
2021/01/08 06:31:44;;;;;;;1.27;0.77;;;4.10;99.90;;;3.79;100.00;101369.72;4986752;28;20051;-71
2021/01/08 06:34:10;;;;;;;1.98;0.68;;;4.20;99.90;;;3.78;100.00;101370.69;4999333;28;20566;-72
2021/01/08 06:36:46;;;;;;;1.58;1.45;;;4.20;99.90;;;3.77;100.00;101375.25;4971179;28;20047;-80
2021/01/08 06:39:21;;;;;;;1.15;0.73;;;4.20;99.90;;;3.72;100.00;101374.84;5004650;28;20125;-77
2021/01/08 06:41:52;;;;;;;0.50;0.40;;;4.10;99.90;;;3.77;100.00;101380.63;4997562;28;20041;-73
2021/01/08 06:44:25;;;;;;;1.52;0.63;;;4.10;99.90;;;3.91;100.00;101380.19;4999027;28;20528;-80
2021/01/08 06:46:52;;;;;;;2.25;0.80;;;4.20;99.90;;;3.86;100.00;101379.75;4996998;28;20037;-71
2021/01/08 06:49:20;;;;;;;0.70;0.63;;;4.20;99.90;;;3.85;100.00;101383.44;5028103;28;20088;-74
2021/01/08 06:51:46;;;;;;;0.80;0.80;;;4.20;99.90;;;3.79;100.00;101389.41;5031826;28;20034;-76
2021/01/08 06:54:13;;;;;;;0.95;0.60;;;4.20;99.90;;;3.84;100.00;101391.66;4977925;28;20373;-80
2021/01/08 06:56:40;;;;;;;1.75;0.98;;;4.20;99.90;;;3.79;100.00;101384.03;5001740;28;20060;-80
2021/01/08 06:59:16;;;;;;;1.45;0.70;;;4.10;99.90;;;3.58;100.00;101396.78;4988071;28;20057;-76
2021/01/08 07:02:06;;;;;;;2.53;0.60;;;4.00;99.90;;;3.63;100.00;101405.28;5016734;28;20026;-70
2021/01/08 07:04:32;;;;;;;1.50;0.70;;;4.00;99.90;;;3.53;100.00;101402.59;5027707;28;20042;-71
2021/01/08 07:07:04;;;;;;;1.05;0.90;;;4.00;99.90;;;3.55;100.00;101410.53;4993364;28;20040;-72
2021/01/08 07:09:35;;;;;;;2.08;0.73;;;3.90;99.90;;;3.67;100.00;101398.63;4997611;28;20042;-70
2021/01/08 07:12:04;;;;;;;1.38;0.60;;;4.00;99.90;;;3.70;100.00;101410.97;4998960;28;20052;-70
2021/01/08 07:14:31;;;;;;;1.38;0.85;;;4.00;99.90;;;3.81;100.00;101408.97;4993428;28;20404;-72
2021/01/08 07:16:58;;;;;;;2.15;1.80;;;4.10;99.90;;;3.78;100.00;101408.41;4984532;28;20030;-73
2021/01/08 07:19:28;;;;;;;0.80;0.60;;;4.10;99.90;;;3.71;100.00;101410.81;5001148;28;20088;-71
2021/01/08 07:22:04;;;;;;;3.85;0.80;;;4.10;99.90;;;3.65;100.00;101424.84;4989410;28;20026;-70
2021/01/08 07:24:36;;;;;;;2.58;0.60;;;4.00;99.90;;;3.56;100.00;101423.00;4978388;28;20034;-76
2021/01/08 07:27:15;;;;;;;0.70;0.70;;;4.00;99.90;;;3.48;100.00;101421.00;5009300;28;20513;-72
2021/01/08 07:29:57;;;;;;;2.03;0.63;;;3.90;99.90;;;3.38;100.00;101422.00;4998050;28;20065;-72
2021/01/08 07:32:37;;;;;;;3.03;0.88;;;3.90;99.90;;;3.64;100.00;101433.91;4966315;28;20031;-72
2021/01/08 07:35:22;;;;;;;1.40;0.70;;;3.80;99.90;;;3.39;100.00;101423.66;4986513;28;20037;-74
2021/01/08 07:38:10;;;;;;;2.55;1.00;;;3.70;99.90;;;3.27;100.00;101437.25;5015719;28;20084;-70
2021/01/08 07:40:40;;;;;;;1.15;0.75;;;3.60;99.90;;;3.25;100.00;101444.63;5014715;28;20105;-79
2021/01/08 07:43:09;;;;;;;1.23;0.82;;;3.60;99.90;;;3.33;100.00;101446.63;4994978;28;20370;-83
2021/01/08 07:45:58;;;;;;;3.05;0.90;;;3.60;99.90;;;3.22;100.00;101441.34;4982536;28;20037;-78
2021/01/08 07:48:35;;;;;;;1.45;0.70;;;3.50;99.90;;;3.35;100.00;101454.56;4999792;28;20058;-81
2021/01/08 07:51:44;;;;;;;1.02;0.63;;;3.40;99.90;;;3.25;100.00;101452.69;5016988;28;20038;-75
2021/01/08 07:54:10;;;;;;;2.35;0.82;;;3.40;99.90;;;3.24;100.00;101459.06;4998669;28;20060;-79
2021/01/08 07:56:56;;;;;;;1.50;0.93;;;3.40;99.90;;;3.36;100.00;101462.50;4980884;28;20053;-82
2021/01/08 07:59:29;;;;;;;2.40;2.20;;;3.40;99.90;;;3.24;100.00;101464.44;4985958;28;20038;-75
2021/01/08 08:01:54;;;;;;;0.60;0.60;;;3.40;99.90;;;3.34;100.00;101469.84;4987415;28;20033;-81
2021/01/08 08:04:22;;;;;;;1.77;0.93;;;3.40;99.90;;;3.27;100.00;101469.53;4999762;28;20504;-84
2021/01/08 08:06:51;;;;;;;2.25;0.88;;;3.40;99.90;;;3.27;100.00;101477.59;4994699;28;20113;-81
2021/01/08 08:09:17;;;;;;;1.67;0.85;;;3.30;99.90;;;3.22;100.00;101487.09;4996581;28;20034;-78
2021/01/08 08:11:43;;;;;;;2.50;0.52;;;3.30;99.90;;;3.31;100.00;101490.78;5015083;28;20041;-79
2021/01/08 08:14:21;;;;;;;0.50;0.50;;;3.30;99.90;;;3.16;100.00;101493.03;4998452;28;20038;-81
2021/01/08 08:16:49;;;;;;;2.13;1.15;;;3.30;99.90;;;3.14;100.00;101493.16;4992667;28;20444;-79
2021/01/08 08:19:16;;;;;;;2.70;0.85;;;3.30;99.90;;;3.31;100.00;101496.16;4977590;28;20026;-79
2021/01/08 08:21:48;;;;;;;3.83;0.82;;;3.40;99.90;;;3.26;100.00;101504.66;4995765;28;20053;-82
2021/01/08 08:24:16;;;;;;;1.38;0.70;;;3.40;99.90;;;3.19;100.00;101503.50;4994871;28;20038;-76
2021/01/08 08:26:43;;;;;;;4.18;0.90;;;3.50;99.90;;;3.53;100.00;101506.69;4995634;28;20041;-79
2021/01/08 08:29:14;;;;;;;1.38;0.82;;;3.50;99.90;;;3.67;100.00;101517.06;5008143;28;20100;-75
2021/01/08 08:31:47;;;;;;;3.13;1.13;;;3.60;99.90;;;3.54;100.00;101514.63;4988173;28;20034;-76
2021/01/08 08:34:32;;;;;;;1.35;0.98;;;3.70;99.90;;;3.84;100.00;101516.38;4982105;28;20053;-76
2021/01/08 08:37:08;;;;;;;3.17;0.85;;;3.80;99.90;;;3.91;100.00;101522.91;4993434;28;20117;-76
2021/01/08 08:39:34;;;;;;;5.15;1.00;;;3.90;99.90;;;4.40;100.00;101528.31;4997398;28;20037;-72
2021/01/08 08:42:00;;;;;;;4.93;0.98;;;4.10;99.90;;;4.57;100.00;101525.72;4980076;28;20042;-70
2021/01/08 08:44:26;;;;;;;3.45;0.80;;;4.40;99.90;;;5.21;100.00;101524.94;4995376;28;20045;-78
2021/01/08 08:46:56;;;;;;;2.47;1.20;;;4.60;99.90;;;5.51;98.51;101528.34;4980386;28;20044;-81
2021/01/08 08:49:34;;;;;;;1.67;1.08;;;4.90;99.90;;;5.73;95.66;101530.63;5005583;28;20065;-69
2021/01/08 08:52:01;;;;;;;1.45;1.10;;;5.20;99.90;;;6.02;95.08;101535.84;5015755;28;20031;-72
2021/01/08 08:54:27;;;;;;;2.78;1.33;;;5.40;99.90;;;5.89;93.51;101535.38;5013923;28;20046;-88
2021/01/08 08:56:55;;;;;;;2.80;2.13;;;5.50;99.90;;;6.17;93.53;101545.13;5005365;28;20081;-68
2021/01/08 08:59:42;;;;;;;1.63;1.45;;;5.70;99.90;;;6.27;92.74;101540.50;4986954;28;20030;-76
2021/01/08 09:02:23;;;;;;;3.40;1.48;;;5.80;99.90;;;5.97;92.70;101541.72;4996086;28;20034;-75
2021/01/08 09:04:53;;;;;;;2.72;1.20;;;5.70;99.90;;;5.65;92.60;101550.28;4993569;28;20504;-75
2021/01/08 09:07:59;;;;;;;1.67;1.02;;;5.70;99.90;;;5.68;94.00;101552.69;4990157;28;20416;-70
2021/01/08 09:10:32;;;;;;;;;;;5.50;99.90;;;5.73;94.05;101552.25;4993193;28;20046;-76
2021/01/08 09:13:17;;;;;;;1.67;0.60;;;5.50;99.90;;;5.95;92.57;101556.38;5002721;28;19925;-73
2021/01/08 09:16:02;;;;;;;1.50;0.80;;;5.60;99.90;;;5.97;92.26;101555.25;5000288;28;20033;-70
2021/01/08 09:18:48;;;;;;;1.70;0.77;;;5.70;99.90;;;5.63;92.96;101559.56;5023594;28;20587;-72
2021/01/08 09:21:25;;;;;;;3.97;1.00;;;5.60;99.90;;;5.77;92.28;101561.72;5009047;28;20052;-75
2021/01/08 09:23:58;;;;;;;1.00;0.70;;;5.50;99.90;;;6.04;92.79;101567.13;5012852;28;20033;-69
2021/01/08 09:26:25;;;;;;;1.27;1.00;;;5.60;99.90;;;5.97;91.60;101566.06;4991588;28;20048;-69
2021/01/08 09:28:53;;;;;;;1.23;1.00;;;5.70;99.90;;;6.36;90.41;101569.28;5015118;28;20026;-71
2021/01/08 09:31:20;;;;;;;3.38;1.05;;;5.80;99.90;;;6.75;89.83;101577.91;5000094;28;20042;-71
2021/01/08 09:33:59;;;;;;;0.70;0.70;;;6.10;99.90;;;7.63;86.43;101571.31;4980257;28;20026;-75
2021/01/08 09:36:53;;;;;;;0.80;0.70;;;6.50;99.90;;;7.65;84.46;101576.56;4972427;28;20393;-76
2021/01/08 09:39:22;;;;;;;5.28;1.20;;;6.70;99.90;;;7.63;83.38;101574.03;4980531;28;20133;-75
2021/01/08 09:42:00;;;;;;;3.35;0.75;;;6.80;99.90;;;7.91;82.59;101582.75;4984695;28;20038;-78
2021/01/08 09:44:34;;;;;;;1.70;1.00;;;7.00;99.90;;;8.28;81.37;101579.59;5006785;28;20026;-74
2021/01/08 09:47:07;;;;;;;2.15;1.00;;;7.30;99.90;;;8.27;79.33;101591.47;4988385;28;20037;-76
2021/01/08 09:49:43;;;;;;;1.13;0.90;;;7.50;99.90;;;8.11;80.41;101588.75;4997766;28;20050;-74
2021/01/08 09:52:11;;;;;;;1.45;0.60;;;7.70;99.90;;;8.25;81.55;101584.50;5016902;28;20022;-76
2021/01/08 09:54:41;;;;;;;2.30;1.27;;;7.60;99.90;;;8.43;80.69;101595.25;4980480;28;20037;-73
2021/01/08 09:57:07;;;;;;;1.38;0.73;;;7.60;99.90;;;8.51;79.64;101600.69;4982653;28;20042;-72
2021/01/08 09:59:32;;;;;;;1.05;0.80;;;7.70;99.90;;;8.42;80.41;101602.56;4984136;28;20461;-76
2021/01/08 10:02:04;;;;;;;0.80;0.60;;;7.70;99.90;;;8.53;78.66;101604.09;4979935;28;20038;-77
2021/01/08 10:04:35;;;;;;;2.70;0.80;;;7.80;99.90;;;9.25;76.71;101605.91;4987807;28;20049;-77
2021/01/08 10:07:06;;;;;;;1.02;0.60;;;8.10;99.90;;;9.63;75.57;101609.69;5017074;28;20034;-81
2021/01/08 10:09:53;;;;;;;1.65;0.50;;;8.30;99.90;;;8.57;77.65;101608.16;4981959;28;20034;-79
2021/01/08 10:12:21;;;;;;;0.63;0.40;;;8.00;99.90;;;7.60;80.67;101617.69;5003518;28;20050;-82
2021/01/08 10:14:47;;;;;;;1.00;0.60;;;7.60;99.90;;;6.94;83.12;101625.56;4980804;28;20046;-74
2021/01/08 10:17:16;;;;;;;1.75;1.38;;;7.30;99.90;;;6.27;87.57;101618.03;5003296;28;20030;-72
2021/01/08 10:19:47;;;;;;;3.83;1.10;;;6.60;99.90;;;5.75;89.05;101620.47;4998448;28;20036;-76
2021/01/08 10:22:20;;;;;;;0.90;0.65;;;6.20;99.90;;;5.35;90.77;101618.91;4991135;28;20038;-73
2021/01/08 10:24:46;;;;;;;1.30;0.90;;;5.80;99.90;;;5.09;92.91;101626.81;5013940;28;20041;-79
2021/01/08 10:27:12;;;;;;;1.20;0.70;;;5.50;99.90;;;5.02;93.72;101632.94;4989901;28;20038;-80
2021/01/08 10:29:40;;;;;;;1.00;0.70;;;5.30;99.90;;;5.13;93.43;101619.28;4999962;28;20030;-82
2021/01/08 10:32:13;;;;;;;1.85;0.50;;;5.30;99.90;;;5.23;93.33;101619.25;4992652;28;20053;-85